sensor_id;sensor_type;location;lat;lon;timestamp;P1;durP1;ratioP1;P2;durP2;ratioP2
43986;SDS011;29650;47.378;8.300;2023-03-24T00:02:08;2.70;;;1.90;;
43986;SDS011;29650;47.378;8.300;2023-03-24T00:07:07;5.45;;;2.15;;
43986;SDS011;29650;47.378;8.300;2023-03-24T00:09:38;10.30;;;2.50;;
43986;SDS011;29650;47.378;8.300;2023-03-24T00:12:05;5.82;;;2.40;;
43986;SDS011;29650;47.378;8.300;2023-03-24T00:14:34;3.10;;;2.20;;
43986;SDS011;29650;47.378;8.300;2023-03-24T00:17:02;3.47;;;2.25;;
43986;SDS011;29650;47.378;8.300;2023-03-24T00:19:29;3.03;;;2.45;;
43986;SDS011;29650;47.378;8.300;2023-03-24T00:21:57;4.20;;;2.83;;
43986;SDS011;29650;47.378;8.300;2023-03-24T00:24:25;2.88;;;2.22;;
43986;SDS011;29650;47.378;8.300;2023-03-24T00:26:52;4.70;;;2.53;;
43986;SDS011;29650;47.378;8.300;2023-03-24T00:29:21;5.97;;;2.70;;
43986;SDS011;29650;47.378;8.300;2023-03-24T00:31:51;5.18;;;2.72;;
43986;SDS011;29650;47.378;8.300;2023-03-24T00:34:18;3.38;;;2.22;;
43986;SDS011;29650;47.378;8.300;2023-03-24T00:36:46;6.43;;;2.72;;
43986;SDS011;29650;47.378;8.300;2023-03-24T00:39:15;4.10;;;2.50;;
43986;SDS011;29650;47.378;8.300;2023-03-24T00:41:43;6.57;;;2.90;;
43986;SDS011;29650;47.378;8.300;2023-03-24T00:44:10;5.63;;;2.90;;
43986;SDS011;29650;47.378;8.300;2023-03-24T00:46:42;4.60;;;2.63;;
43986;SDS011;29650;47.378;8.300;2023-03-24T00:49:11;4.28;;;2.85;;
43986;SDS011;29650;47.378;8.300;2023-03-24T00:51:40;4.65;;;2.83;;
43986;SDS011;29650;47.378;8.300;2023-03-24T00:54:10;5.90;;;2.50;;
43986;SDS011;29650;47.378;8.300;2023-03-24T00:56:38;4.00;;;2.70;;
43986;SDS011;29650;47.378;8.300;2023-03-24T01:01:35;4.43;;;2.63;;
43986;SDS011;29650;47.378;8.300;2023-03-24T01:04:03;4.10;;;3.00;;
43986;SDS011;29650;47.378;8.300;2023-03-24T01:06:32;4.93;;;3.05;;
43986;SDS011;29650;47.378;8.300;2023-03-24T01:09:01;4.40;;;2.78;;
43986;SDS011;29650;47.378;8.300;2023-03-24T01:11:32;5.72;;;3.40;;
43986;SDS011;29650;47.378;8.300;2023-03-24T01:14:01;5.65;;;3.03;;
43986;SDS011;29650;47.378;8.300;2023-03-24T01:16:29;5.57;;;3.28;;
43986;SDS011;29650;47.378;8.300;2023-03-24T01:18:56;10.93;;;3.47;;
43986;SDS011;29650;47.378;8.300;2023-03-24T01:21:23;5.25;;;3.55;;
43986;SDS011;29650;47.378;8.300;2023-03-24T01:23:51;5.35;;;2.65;;
43986;SDS011;29650;47.378;8.300;2023-03-24T01:26:19;5.07;;;3.00;;
43986;SDS011;29650;47.378;8.300;2023-03-24T01:28:45;6.38;;;3.10;;
43986;SDS011;29650;47.378;8.300;2023-03-24T01:31:12;8.45;;;3.08;;
43986;SDS011;29650;47.378;8.300;2023-03-24T01:33:40;9.95;;;3.33;;
43986;SDS011;29650;47.378;8.300;2023-03-24T01:36:07;4.70;;;3.28;;
43986;SDS011;29650;47.378;8.300;2023-03-24T01:38:35;5.60;;;3.00;;
43986;SDS011;29650;47.378;8.300;2023-03-24T01:41:04;7.43;;;3.13;;
43986;SDS011;29650;47.378;8.300;2023-03-24T01:43:32;10.32;;;4.00;;
43986;SDS011;29650;47.378;8.300;2023-03-24T01:46:02;7.87;;;3.63;;
43986;SDS011;29650;47.378;8.300;2023-03-24T01:48:41;7.43;;;3.50;;
43986;SDS011;29650;47.378;8.300;2023-03-24T01:51:12;6.03;;;3.92;;
43986;SDS011;29650;47.378;8.300;2023-03-24T01:53:42;6.45;;;3.83;;
43986;SDS011;29650;47.378;8.300;2023-03-24T01:56:13;6.38;;;3.63;;
43986;SDS011;29650;47.378;8.300;2023-03-24T01:58:42;7.07;;;3.97;;
43986;SDS011;29650;47.378;8.300;2023-03-24T02:01:12;13.57;;;3.90;;
43986;SDS011;29650;47.378;8.300;2023-03-24T02:03:41;5.22;;;3.53;;
43986;SDS011;29650;47.378;8.300;2023-03-24T02:06:09;5.07;;;3.63;;
43986;SDS011;29650;47.378;8.300;2023-03-24T02:08:38;5.68;;;3.63;;
43986;SDS011;29650;47.378;8.300;2023-03-24T02:11:09;7.07;;;3.55;;
43986;SDS011;29650;47.378;8.300;2023-03-24T02:13:38;5.43;;;3.63;;
43986;SDS011;29650;47.378;8.300;2023-03-24T02:16:09;5.82;;;3.60;;
43986;SDS011;29650;47.378;8.300;2023-03-24T02:18:46;7.18;;;3.65;;
43986;SDS011;29650;47.378;8.300;2023-03-24T02:24:41;6.72;;;3.80;;
43986;SDS011;29650;47.378;8.300;2023-03-24T02:30:30;6.78;;;3.45;;
43986;SDS011;29650;47.378;8.300;2023-03-24T02:35:54;6.93;;;3.65;;
43986;SDS011;29650;47.378;8.300;2023-03-24T02:38:50;11.85;;;4.00;;
43986;SDS011;29650;47.378;8.300;2023-03-24T02:41:37;7.78;;;3.97;;
43986;SDS011;29650;47.378;8.300;2023-03-24T02:44:10;8.02;;;3.88;;
43986;SDS011;29650;47.378;8.300;2023-03-24T02:46:45;6.75;;;3.72;;
43986;SDS011;29650;47.378;8.300;2023-03-24T02:49:19;4.38;;;3.33;;
43986;SDS011;29650;47.378;8.300;2023-03-24T02:51:52;4.32;;;3.03;;
43986;SDS011;29650;47.378;8.300;2023-03-24T02:54:26;7.28;;;3.55;;
43986;SDS011;29650;47.378;8.300;2023-03-24T02:57:04;8.45;;;2.88;;
43986;SDS011;29650;47.378;8.300;2023-03-24T02:59:36;4.60;;;2.63;;
43986;SDS011;29650;47.378;8.300;2023-03-24T03:02:08;7.22;;;3.00;;
43986;SDS011;29650;47.378;8.300;2023-03-24T03:04:40;12.80;;;3.40;;
43986;SDS011;29650;47.378;8.300;2023-03-24T03:07:14;5.22;;;2.88;;
43986;SDS011;29650;47.378;8.300;2023-03-24T03:09:46;6.18;;;2.97;;
43986;SDS011;29650;47.378;8.300;2023-03-24T03:12:18;5.22;;;2.75;;
43986;SDS011;29650;47.378;8.300;2023-03-24T03:14:49;3.63;;;2.65;;
43986;SDS011;29650;47.378;8.300;2023-03-24T03:17:19;5.05;;;3.05;;
43986;SDS011;29650;47.378;8.300;2023-03-24T03:19:53;4.15;;;2.90;;
43986;SDS011;29650;47.378;8.300;2023-03-24T03:22:23;9.30;;;3.58;;
43986;SDS011;29650;47.378;8.300;2023-03-24T03:24:55;6.80;;;3.97;;
43986;SDS011;29650;47.378;8.300;2023-03-24T03:27:28;4.50;;;3.42;;
43986;SDS011;29650;47.378;8.300;2023-03-24T03:29:57;5.75;;;3.60;;
43986;SDS011;29650;47.378;8.300;2023-03-24T03:32:28;10.88;;;4.28;;
43986;SDS011;29650;47.378;8.300;2023-03-24T03:34:59;6.95;;;4.28;;
43986;SDS011;29650;47.378;8.300;2023-03-24T03:37:32;10.20;;;4.18;;
43986;SDS011;29650;47.378;8.300;2023-03-24T03:40:08;5.03;;;3.88;;
43986;SDS011;29650;47.378;8.300;2023-03-24T03:42:40;6.05;;;3.58;;
43986;SDS011;29650;47.378;8.300;2023-03-24T03:45:07;5.53;;;3.95;;
43986;SDS011;29650;47.378;8.300;2023-03-24T03:47:36;5.15;;;4.00;;
43986;SDS011;29650;47.378;8.300;2023-03-24T03:50:04;6.22;;;3.40;;
43986;SDS011;29650;47.378;8.300;2023-03-24T03:52:33;7.75;;;4.40;;
43986;SDS011;29650;47.378;8.300;2023-03-24T03:55:01;6.63;;;4.03;;
43986;SDS011;29650;47.378;8.300;2023-03-24T03:57:29;5.00;;;4.03;;
43986;SDS011;29650;47.378;8.300;2023-03-24T03:59:59;6.47;;;3.88;;
43986;SDS011;29650;47.378;8.300;2023-03-24T04:02:37;5.15;;;3.78;;
43986;SDS011;29650;47.378;8.300;2023-03-24T04:05:25;6.95;;;3.72;;
43986;SDS011;29650;47.378;8.300;2023-03-24T04:10:57;6.90;;;4.10;;
43986;SDS011;29650;47.378;8.300;2023-03-24T04:13:42;5.40;;;3.70;;
43986;SDS011;29650;47.378;8.300;2023-03-24T04:16:18;5.40;;;3.75;;
43986;SDS011;29650;47.378;8.300;2023-03-24T04:18:53;10.85;;;4.03;;
43986;SDS011;29650;47.378;8.300;2023-03-24T04:21:37;4.93;;;3.85;;
43986;SDS011;29650;47.378;8.300;2023-03-24T04:24:24;9.15;;;3.80;;
43986;SDS011;29650;47.378;8.300;2023-03-24T04:27:02;7.43;;;2.95;;
43986;SDS011;29650;47.378;8.300;2023-03-24T04:29:39;5.97;;;3.25;;
43986;SDS011;29650;47.378;8.300;2023-03-24T04:32:19;5.83;;;3.43;;
43986;SDS011;29650;47.378;8.300;2023-03-24T04:34:52;3.00;;;2.17;;
43986;SDS011;29650;47.378;8.300;2023-03-24T04:37:26;2.20;;;1.80;;
43986;SDS011;29650;47.378;8.300;2023-03-24T04:39:56;4.25;;;2.20;;
43986;SDS011;29650;47.378;8.300;2023-03-24T04:42:29;2.72;;;2.00;;
43986;SDS011;29650;47.378;8.300;2023-03-24T04:45:00;5.40;;;2.15;;
43986;SDS011;29650;47.378;8.300;2023-03-24T04:47:29;5.07;;;2.50;;
43986;SDS011;29650;47.378;8.300;2023-03-24T04:50:04;3.85;;;2.67;;
43986;SDS011;29650;47.378;8.300;2023-03-24T04:52:35;2.53;;;1.65;;
43986;SDS011;29650;47.378;8.300;2023-03-24T04:55:02;6.13;;;2.47;;
43986;SDS011;29650;47.378;8.300;2023-03-24T04:57:36;2.40;;;2.20;;
43986;SDS011;29650;47.378;8.300;2023-03-24T05:00:04;5.70;;;2.38;;
43986;SDS011;29650;47.378;8.300;2023-03-24T05:02:34;2.70;;;2.25;;
43986;SDS011;29650;47.378;8.300;2023-03-24T05:05:01;5.47;;;2.60;;
43986;SDS011;29650;47.378;8.300;2023-03-24T05:07:28;2.58;;;2.13;;
43986;SDS011;29650;47.378;8.300;2023-03-24T05:09:55;5.53;;;2.47;;
43986;SDS011;29650;47.378;8.300;2023-03-24T05:12:22;3.35;;;2.10;;
43986;SDS011;29650;47.378;8.300;2023-03-24T05:14:49;3.45;;;2.30;;
43986;SDS011;29650;47.378;8.300;2023-03-24T05:17:16;5.30;;;1.50;;
43986;SDS011;29650;47.378;8.300;2023-03-24T05:19:44;4.25;;;2.20;;
43986;SDS011;29650;47.378;8.300;2023-03-24T05:22:11;4.97;;;2.25;;
43986;SDS011;29650;47.378;8.300;2023-03-24T05:24:38;10.35;;;2.20;;
43986;SDS011;29650;47.378;8.300;2023-03-24T05:27:05;5.90;;;1.95;;
43986;SDS011;29650;47.378;8.300;2023-03-24T05:29:32;3.70;;;2.55;;
43986;SDS011;29650;47.378;8.300;2023-03-24T05:31:59;3.90;;;2.20;;
43986;SDS011;29650;47.378;8.300;2023-03-24T05:34:26;2.42;;;1.80;;
43986;SDS011;29650;47.378;8.300;2023-03-24T05:36:54;5.00;;;2.05;;
43986;SDS011;29650;47.378;8.300;2023-03-24T05:39:21;3.60;;;2.22;;
43986;SDS011;29650;47.378;8.300;2023-03-24T05:41:48;2.67;;;2.15;;
43986;SDS011;29650;47.378;8.300;2023-03-24T05:44:15;4.22;;;2.08;;
43986;SDS011;29650;47.378;8.300;2023-03-24T05:46:42;3.65;;;2.35;;
43986;SDS011;29650;47.378;8.300;2023-03-24T05:49:08;4.38;;;2.67;;
43986;SDS011;29650;47.378;8.300;2023-03-24T05:51:35;4.57;;;2.00;;
43986;SDS011;29650;47.378;8.300;2023-03-24T05:54:04;5.40;;;2.45;;
43986;SDS011;29650;47.378;8.300;2023-03-24T05:56:31;4.38;;;2.33;;
43986;SDS011;29650;47.378;8.300;2023-03-24T05:58:58;3.45;;;1.45;;
43986;SDS011;29650;47.378;8.300;2023-03-24T06:01:25;3.53;;;1.90;;
43986;SDS011;29650;47.378;8.300;2023-03-24T06:03:53;3.30;;;2.03;;
43986;SDS011;29650;47.378;8.300;2023-03-24T06:06:19;2.67;;;1.85;;
43986;SDS011;29650;47.378;8.300;2023-03-24T06:08:46;3.25;;;2.25;;
43986;SDS011;29650;47.378;8.300;2023-03-24T06:11:14;4.47;;;2.30;;
43986;SDS011;29650;47.378;8.300;2023-03-24T06:13:41;4.50;;;2.92;;
43986;SDS011;29650;47.378;8.300;2023-03-24T06:16:08;3.38;;;2.30;;
43986;SDS011;29650;47.378;8.300;2023-03-24T06:18:36;3.40;;;2.47;;
43986;SDS011;29650;47.378;8.300;2023-03-24T06:21:04;3.07;;;2.00;;
43986;SDS011;29650;47.378;8.300;2023-03-24T06:23:32;4.15;;;2.53;;
43986;SDS011;29650;47.378;8.300;2023-03-24T06:25:59;4.25;;;2.53;;
43986;SDS011;29650;47.378;8.300;2023-03-24T06:28:27;2.80;;;1.90;;
43986;SDS011;29650;47.378;8.300;2023-03-24T06:30:58;2.83;;;1.85;;
43986;SDS011;29650;47.378;8.300;2023-03-24T06:33:25;5.32;;;2.50;;
43986;SDS011;29650;47.378;8.300;2023-03-24T06:35:52;3.65;;;2.20;;
43986;SDS011;29650;47.378;8.300;2023-03-24T06:38:19;3.15;;;2.40;;
43986;SDS011;29650;47.378;8.300;2023-03-24T06:40:46;5.70;;;2.35;;
43986;SDS011;29650;47.378;8.300;2023-03-24T06:43:13;3.10;;;2.20;;
43986;SDS011;29650;47.378;8.300;2023-03-24T06:45:41;3.78;;;2.00;;
43986;SDS011;29650;47.378;8.300;2023-03-24T06:48:09;7.93;;;2.65;;
43986;SDS011;29650;47.378;8.300;2023-03-24T06:50:36;5.53;;;2.85;;
43986;SDS011;29650;47.378;8.300;2023-03-24T06:53:03;3.58;;;2.40;;
43986;SDS011;29650;47.378;8.300;2023-03-24T06:55:30;11.18;;;2.55;;
43986;SDS011;29650;47.378;8.300;2023-03-24T06:57:56;3.58;;;1.88;;
43986;SDS011;29650;47.378;8.300;2023-03-24T07:00:23;6.45;;;3.15;;
43986;SDS011;29650;47.378;8.300;2023-03-24T07:02:54;4.20;;;1.98;;
43986;SDS011;29650;47.378;8.300;2023-03-24T07:05:21;2.17;;;1.97;;
43986;SDS011;29650;47.378;8.300;2023-03-24T07:07:48;3.30;;;2.30;;
43986;SDS011;29650;47.378;8.300;2023-03-24T07:10:15;4.63;;;2.88;;
43986;SDS011;29650;47.378;8.300;2023-03-24T07:12:43;3.63;;;2.42;;
43986;SDS011;29650;47.378;8.300;2023-03-24T07:15:12;2.80;;;1.92;;
43986;SDS011;29650;47.378;8.300;2023-03-24T07:17:39;2.78;;;2.13;;
43986;SDS011;29650;47.378;8.300;2023-03-24T07:20:08;3.25;;;2.42;;
43986;SDS011;29650;47.378;8.300;2023-03-24T07:22:35;1.98;;;1.67;;
43986;SDS011;29650;47.378;8.300;2023-03-24T07:25:03;4.68;;;2.70;;
43986;SDS011;29650;47.378;8.300;2023-03-24T07:27:31;6.18;;;2.78;;
43986;SDS011;29650;47.378;8.300;2023-03-24T07:29:59;4.22;;;2.53;;
43986;SDS011;29650;47.378;8.300;2023-03-24T07:32:27;4.90;;;2.90;;
43986;SDS011;29650;47.378;8.300;2023-03-24T07:34:59;4.53;;;2.92;;
43986;SDS011;29650;47.378;8.300;2023-03-24T07:37:27;4.82;;;2.78;;
43986;SDS011;29650;47.378;8.300;2023-03-24T07:39:54;3.42;;;2.72;;
43986;SDS011;29650;47.378;8.300;2023-03-24T07:42:21;4.00;;;2.63;;
43986;SDS011;29650;47.378;8.300;2023-03-24T07:44:48;7.88;;;2.92;;
43986;SDS011;29650;47.378;8.300;2023-03-24T07:47:15;9.65;;;2.55;;
43986;SDS011;29650;47.378;8.300;2023-03-24T07:49:42;2.28;;;2.08;;
43986;SDS011;29650;47.378;8.300;2023-03-24T07:52:10;9.15;;;3.08;;
43986;SDS011;29650;47.378;8.300;2023-03-24T07:54:38;4.82;;;2.55;;
43986;SDS011;29650;47.378;8.300;2023-03-24T07:57:05;5.63;;;2.60;;
43986;SDS011;29650;47.378;8.300;2023-03-24T07:59:32;4.30;;;3.20;;
43986;SDS011;29650;47.378;8.300;2023-03-24T08:02:00;4.00;;;3.20;;
43986;SDS011;29650;47.378;8.300;2023-03-24T08:04:27;3.17;;;2.58;;
43986;SDS011;29650;47.378;8.300;2023-03-24T08:06:54;3.50;;;2.03;;
43986;SDS011;29650;47.378;8.300;2023-03-24T08:09:21;3.65;;;2.35;;
43986;SDS011;29650;47.378;8.300;2023-03-24T08:11:50;4.20;;;2.28;;
43986;SDS011;29650;47.378;8.300;2023-03-24T08:14:17;3.65;;;2.40;;
43986;SDS011;29650;47.378;8.300;2023-03-24T08:16:44;3.22;;;2.55;;
43986;SDS011;29650;47.378;8.300;2023-03-24T08:19:11;4.20;;;2.55;;
43986;SDS011;29650;47.378;8.300;2023-03-24T08:21:37;3.92;;;2.45;;
43986;SDS011;29650;47.378;8.300;2023-03-24T08:24:05;4.43;;;2.97;;
43986;SDS011;29650;47.378;8.300;2023-03-24T08:26:32;3.47;;;2.70;;
43986;SDS011;29650;47.378;8.300;2023-03-24T08:29:00;4.65;;;3.63;;
43986;SDS011;29650;47.378;8.300;2023-03-24T08:31:30;6.95;;;3.75;;
43986;SDS011;29650;47.378;8.300;2023-03-24T08:33:57;5.88;;;3.72;;
43986;SDS011;29650;47.378;8.300;2023-03-24T08:36:24;4.57;;;3.05;;
43986;SDS011;29650;47.378;8.300;2023-03-24T08:38:51;7.15;;;3.33;;
43986;SDS011;29650;47.378;8.300;2023-03-24T08:41:19;9.00;;;3.55;;
43986;SDS011;29650;47.378;8.300;2023-03-24T08:43:54;5.63;;;3.20;;
43986;SDS011;29650;47.378;8.300;2023-03-24T08:46:23;3.80;;;3.00;;
43986;SDS011;29650;47.378;8.300;2023-03-24T08:48:50;5.68;;;2.83;;
43986;SDS011;29650;47.378;8.300;2023-03-24T08:51:17;6.10;;;3.15;;
43986;SDS011;29650;47.378;8.300;2023-03-24T08:53:43;5.40;;;2.90;;
43986;SDS011;29650;47.378;8.300;2023-03-24T08:56:10;3.88;;;2.92;;
43986;SDS011;29650;47.378;8.300;2023-03-24T08:58:37;4.40;;;2.80;;
43986;SDS011;29650;47.378;8.300;2023-03-24T09:01:04;4.63;;;3.00;;
43986;SDS011;29650;47.378;8.300;2023-03-24T09:03:33;8.45;;;3.38;;
43986;SDS011;29650;47.378;8.300;2023-03-24T09:06:03;5.97;;;2.65;;
43986;SDS011;29650;47.378;8.300;2023-03-24T09:08:31;4.40;;;2.83;;
43986;SDS011;29650;47.378;8.300;2023-03-24T09:10:58;5.55;;;2.75;;
43986;SDS011;29650;47.378;8.300;2023-03-24T09:13:25;4.38;;;2.85;;
43986;SDS011;29650;47.378;8.300;2023-03-24T09:15:52;3.45;;;2.33;;
43986;SDS011;29650;47.378;8.300;2023-03-24T09:18:23;3.65;;;2.45;;
43986;SDS011;29650;47.378;8.300;2023-03-24T09:20:51;7.50;;;3.03;;
43986;SDS011;29650;47.378;8.300;2023-03-24T09:23:18;4.03;;;2.58;;
43986;SDS011;29650;47.378;8.300;2023-03-24T09:25:47;4.30;;;3.13;;
43986;SDS011;29650;47.378;8.300;2023-03-24T09:28:14;5.40;;;2.45;;
43986;SDS011;29650;47.378;8.300;2023-03-24T09:30:40;4.38;;;2.42;;
43986;SDS011;29650;47.378;8.300;2023-03-24T09:33:08;5.28;;;2.78;;
43986;SDS011;29650;47.378;8.300;2023-03-24T09:35:35;3.97;;;2.92;;
43986;SDS011;29650;47.378;8.300;2023-03-24T09:38:03;4.53;;;2.60;;
43986;SDS011;29650;47.378;8.300;2023-03-24T09:40:31;3.72;;;2.65;;
43986;SDS011;29650;47.378;8.300;2023-03-24T09:43:02;4.25;;;2.03;;
43986;SDS011;29650;47.378;8.300;2023-03-24T09:45:35;4.45;;;2.97;;
43986;SDS011;29650;47.378;8.300;2023-03-24T09:48:06;2.97;;;2.67;;
43986;SDS011;29650;47.378;8.300;2023-03-24T09:50:38;6.03;;;2.88;;
43986;SDS011;29650;47.378;8.300;2023-03-24T09:53:13;2.97;;;2.47;;
43986;SDS011;29650;47.378;8.300;2023-03-24T09:55:50;6.00;;;3.30;;
43986;SDS011;29650;47.378;8.300;2023-03-24T09:58:17;5.05;;;2.90;;
43986;SDS011;29650;47.378;8.300;2023-03-24T10:00:45;4.97;;;2.92;;
43986;SDS011;29650;47.378;8.300;2023-03-24T10:03:13;4.30;;;3.05;;
43986;SDS011;29650;47.378;8.300;2023-03-24T10:05:46;6.00;;;3.35;;
43986;SDS011;29650;47.378;8.300;2023-03-24T10:08:20;5.72;;;3.15;;
43986;SDS011;29650;47.378;8.300;2023-03-24T10:10:55;8.23;;;4.18;;
43986;SDS011;29650;47.378;8.300;2023-03-24T10:13:27;6.00;;;2.95;;
43986;SDS011;29650;47.378;8.300;2023-03-24T10:16:06;4.07;;;3.40;;
43986;SDS011;29650;47.378;8.300;2023-03-24T10:18:39;5.50;;;3.83;;
43986;SDS011;29650;47.378;8.300;2023-03-24T10:21:13;7.95;;;4.20;;
43986;SDS011;29650;47.378;8.300;2023-03-24T10:23:47;6.10;;;3.58;;
43986;SDS011;29650;47.378;8.300;2023-03-24T10:26:25;6.30;;;3.95;;
43986;SDS011;29650;47.378;8.300;2023-03-24T10:29:02;5.32;;;3.78;;
43986;SDS011;29650;47.378;8.300;2023-03-24T10:31:42;6.88;;;3.90;;
43986;SDS011;29650;47.378;8.300;2023-03-24T10:34:15;6.05;;;3.97;;
43986;SDS011;29650;47.378;8.300;2023-03-24T10:36:43;8.75;;;4.53;;
43986;SDS011;29650;47.378;8.300;2023-03-24T10:39:14;11.52;;;4.78;;
43986;SDS011;29650;47.378;8.300;2023-03-24T10:41:42;8.13;;;4.03;;
43986;SDS011;29650;47.378;8.300;2023-03-24T10:44:09;6.78;;;4.28;;
43986;SDS011;29650;47.378;8.300;2023-03-24T10:46:42;9.93;;;4.10;;
43986;SDS011;29650;47.378;8.300;2023-03-24T10:49:15;6.47;;;4.13;;
43986;SDS011;29650;47.378;8.300;2023-03-24T10:51:44;5.28;;;4.10;;
43986;SDS011;29650;47.378;8.300;2023-03-24T10:54:16;5.72;;;3.58;;
43986;SDS011;29650;47.378;8.300;2023-03-24T10:56:46;5.45;;;4.03;;
43986;SDS011;29650;47.378;8.300;2023-03-24T10:59:19;8.00;;;3.83;;
43986;SDS011;29650;47.378;8.300;2023-03-24T11:01:54;5.63;;;3.92;;
43986;SDS011;29650;47.378;8.300;2023-03-24T11:04:25;8.15;;;4.22;;
43986;SDS011;29650;47.378;8.300;2023-03-24T11:06:56;8.82;;;4.15;;
43986;SDS011;29650;47.378;8.300;2023-03-24T11:09:29;6.05;;;4.32;;
43986;SDS011;29650;47.378;8.300;2023-03-24T11:12:10;8.93;;;4.10;;
43986;SDS011;29650;47.378;8.300;2023-03-24T11:14:47;6.75;;;4.28;;
43986;SDS011;29650;47.378;8.300;2023-03-24T11:17:14;8.55;;;3.55;;
43986;SDS011;29650;47.378;8.300;2023-03-24T11:19:48;8.27;;;3.60;;
43986;SDS011;29650;47.378;8.300;2023-03-24T11:22:16;5.75;;;4.45;;
43986;SDS011;29650;47.378;8.300;2023-03-24T11:24:45;8.25;;;4.80;;
43986;SDS011;29650;47.378;8.300;2023-03-24T11:27:15;8.10;;;4.57;;
43986;SDS011;29650;47.378;8.300;2023-03-24T11:29:44;6.50;;;4.28;;
43986;SDS011;29650;47.378;8.300;2023-03-24T11:32:19;9.20;;;5.32;;
43986;SDS011;29650;47.378;8.300;2023-03-24T11:34:53;8.15;;;4.85;;
43986;SDS011;29650;47.378;8.300;2023-03-24T11:37:27;6.22;;;4.40;;
43986;SDS011;29650;47.378;8.300;2023-03-24T11:40:13;7.22;;;4.90;;
43986;SDS011;29650;47.378;8.300;2023-03-24T11:42:42;6.25;;;4.55;;
43986;SDS011;29650;47.378;8.300;2023-03-24T11:45:20;9.52;;;4.60;;
43986;SDS011;29650;47.378;8.300;2023-03-24T11:47:52;7.72;;;4.28;;
43986;SDS011;29650;47.378;8.300;2023-03-24T11:50:22;6.03;;;4.43;;
43986;SDS011;29650;47.378;8.300;2023-03-24T11:52:53;4.65;;;1.73;;
43986;SDS011;29650;47.378;8.300;2023-03-24T11:55:27;1.35;;;0.90;;
43986;SDS011;29650;47.378;8.300;2023-03-24T11:58:02;1.70;;;0.70;;
43986;SDS011;29650;47.378;8.300;2023-03-24T12:00:36;1.02;;;0.77;;
43986;SDS011;29650;47.378;8.300;2023-03-24T12:03:27;0.40;;;0.40;;
43986;SDS011;29650;47.378;8.300;2023-03-24T12:06:09;1.25;;;0.93;;
43986;SDS011;29650;47.378;8.300;2023-03-24T12:08:49;0.60;;;0.60;;
43986;SDS011;29650;47.378;8.300;2023-03-24T12:11:26;0.50;;;0.45;;
43986;SDS011;29650;47.378;8.300;2023-03-24T12:14:17;0.77;;;0.55;;
43986;SDS011;29650;47.378;8.300;2023-03-24T12:16:52;1.33;;;0.88;;
43986;SDS011;29650;47.378;8.300;2023-03-24T12:19:31;0.77;;;0.40;;
43986;SDS011;29650;47.378;8.300;2023-03-24T12:22:09;1.60;;;0.53;;
43986;SDS011;29650;47.378;8.300;2023-03-24T12:27:44;0.82;;;0.50;;
43986;SDS011;29650;47.378;8.300;2023-03-24T12:30:18;0.20;;;0.20;;
43986;SDS011;29650;47.378;8.300;2023-03-24T12:32:54;0.85;;;0.35;;
43986;SDS011;29650;47.378;8.300;2023-03-24T12:35:29;0.20;;;0.20;;
43986;SDS011;29650;47.378;8.300;2023-03-24T12:38:05;0.35;;;0.35;;
43986;SDS011;29650;47.378;8.300;2023-03-24T12:40:59;0.20;;;0.20;;
43986;SDS011;29650;47.378;8.300;2023-03-24T12:43:46;2.35;;;0.40;;
43986;SDS011;29650;47.378;8.300;2023-03-24T12:46:25;1.02;;;0.50;;
43986;SDS011;29650;47.378;8.300;2023-03-24T12:49:12;0.65;;;0.43;;
43986;SDS011;29650;47.378;8.300;2023-03-24T12:52:06;0.80;;;0.70;;
43986;SDS011;29650;47.378;8.300;2023-03-24T12:54:46;0.63;;;0.40;;
43986;SDS011;29650;47.378;8.300;2023-03-24T12:57:18;3.00;;;0.90;;
43986;SDS011;29650;47.378;8.300;2023-03-24T12:59:53;0.35;;;0.30;;
43986;SDS011;29650;47.378;8.300;2023-03-24T13:02:26;0.30;;;0.30;;
43986;SDS011;29650;47.378;8.300;2023-03-24T13:04:59;0.47;;;0.47;;
43986;SDS011;29650;47.378;8.300;2023-03-24T13:07:29;2.13;;;0.50;;
43986;SDS011;29650;47.378;8.300;2023-03-24T13:10:02;0.52;;;0.40;;
43986;SDS011;29650;47.378;8.300;2023-03-24T13:12:38;1.17;;;0.60;;
43986;SDS011;29650;47.378;8.300;2023-03-24T13:15:14;0.65;;;0.50;;
43986;SDS011;29650;47.378;8.300;2023-03-24T13:17:44;1.50;;;0.80;;
43986;SDS011;29650;47.378;8.300;2023-03-24T13:20:19;0.57;;;0.40;;
43986;SDS011;29650;47.378;8.300;2023-03-24T13:22:51;0.50;;;0.50;;
43986;SDS011;29650;47.378;8.300;2023-03-24T13:25:21;0.30;;;0.30;;
43986;SDS011;29650;47.378;8.300;2023-03-24T13:27:55;0.35;;;0.35;;
43986;SDS011;29650;47.378;8.300;2023-03-24T13:30:34;0.47;;;0.47;;
43986;SDS011;29650;47.378;8.300;2023-03-24T13:33:04;0.38;;;0.30;;
43986;SDS011;29650;47.378;8.300;2023-03-24T13:35:46;1.30;;;0.50;;
43986;SDS011;29650;47.378;8.300;2023-03-24T13:38:24;0.93;;;0.60;;
43986;SDS011;29650;47.378;8.300;2023-03-24T13:40:58;0.75;;;0.65;;
43986;SDS011;29650;47.378;8.300;2023-03-24T13:43:29;2.65;;;0.55;;
43986;SDS011;29650;47.378;8.300;2023-03-24T13:46:00;0.77;;;0.40;;
43986;SDS011;29650;47.378;8.300;2023-03-24T13:48:32;0.40;;;0.40;;
43986;SDS011;29650;47.378;8.300;2023-03-24T13:51:03;0.65;;;0.57;;
43986;SDS011;29650;47.378;8.300;2023-03-24T13:53:35;0.80;;;0.60;;
43986;SDS011;29650;47.378;8.300;2023-03-24T13:56:05;2.10;;;0.70;;
43986;SDS011;29650;47.378;8.300;2023-03-24T13:58:48;1.55;;;0.32;;
43986;SDS011;29650;47.378;8.300;2023-03-24T14:01:32;0.43;;;0.43;;
43986;SDS011;29650;47.378;8.300;2023-03-24T14:04:17;1.05;;;0.55;;
43986;SDS011;29650;47.378;8.300;2023-03-24T14:06:48;0.85;;;0.77;;
43986;SDS011;29650;47.378;8.300;2023-03-24T14:09:16;0.50;;;0.45;;
43986;SDS011;29650;47.378;8.300;2023-03-24T14:17:52;1.15;;;0.80;;
43986;SDS011;29650;47.378;8.300;2023-03-24T14:20:28;1.55;;;0.80;;
43986;SDS011;29650;47.378;8.300;2023-03-24T14:23:00;1.30;;;0.93;;
43986;SDS011;29650;47.378;8.300;2023-03-24T14:25:29;1.30;;;0.93;;
43986;SDS011;29650;47.378;8.300;2023-03-24T14:28:16;1.20;;;0.77;;
43986;SDS011;29650;47.378;8.300;2023-03-24T14:31:00;1.30;;;1.00;;
43986;SDS011;29650;47.378;8.300;2023-03-24T14:33:35;1.35;;;0.88;;
43986;SDS011;29650;47.378;8.300;2023-03-24T14:36:04;1.15;;;0.88;;
43986;SDS011;29650;47.378;8.300;2023-03-24T14:38:36;2.10;;;1.83;;
43986;SDS011;29650;47.378;8.300;2023-03-24T14:41:07;4.13;;;2.78;;
43986;SDS011;29650;47.378;8.300;2023-03-24T14:43:51;1.73;;;1.10;;
43986;SDS011;29650;47.378;8.300;2023-03-24T14:46:37;0.65;;;0.60;;
43986;SDS011;29650;47.378;8.300;2023-03-24T14:49:14;0.52;;;0.52;;
43986;SDS011;29650;47.378;8.300;2023-03-24T14:51:47;1.33;;;0.80;;
43986;SDS011;29650;47.378;8.300;2023-03-24T14:54:21;1.23;;;0.70;;
43986;SDS011;29650;47.378;8.300;2023-03-24T14:56:54;1.05;;;0.80;;
43986;SDS011;29650;47.378;8.300;2023-03-24T14:59:29;1.80;;;1.70;;
43986;SDS011;29650;47.378;8.300;2023-03-24T15:02:02;1.53;;;1.20;;
43986;SDS011;29650;47.378;8.300;2023-03-24T15:04:42;1.70;;;1.58;;
43986;SDS011;29650;47.378;8.300;2023-03-24T15:10:43;1.08;;;0.95;;
43986;SDS011;29650;47.378;8.300;2023-03-24T15:13:27;0.63;;;0.57;;
43986;SDS011;29650;47.378;8.300;2023-03-24T15:15:58;0.70;;;0.52;;
43986;SDS011;29650;47.378;8.300;2023-03-24T15:18:26;2.85;;;0.70;;
43986;SDS011;29650;47.378;8.300;2023-03-24T15:20:54;1.05;;;0.73;;
43986;SDS011;29650;47.378;8.300;2023-03-24T15:23:22;1.38;;;1.10;;
43986;SDS011;29650;47.378;8.300;2023-03-24T15:25:52;3.30;;;1.67;;
43986;SDS011;29650;47.378;8.300;2023-03-24T15:28:20;1.73;;;1.42;;
43986;SDS011;29650;47.378;8.300;2023-03-24T15:30:49;2.38;;;1.23;;
43986;SDS011;29650;47.378;8.300;2023-03-24T15:33:17;3.90;;;1.15;;
43986;SDS011;29650;47.378;8.300;2023-03-24T15:35:45;3.72;;;2.85;;
43986;SDS011;29650;47.378;8.300;2023-03-24T15:38:18;1.80;;;1.33;;
43986;SDS011;29650;47.378;8.300;2023-03-24T15:40:51;0.82;;;0.82;;
43986;SDS011;29650;47.378;8.300;2023-03-24T15:43:21;1.63;;;0.70;;